Time;durP1;ratioP1;P1;durP2;ratioP2;P2;SDS_P1;SDS_P2;PMS_P1;PMS_P2;Temp;Humidity;BMP_temperature;BMP_pressure;BME280_temperature;BME280_humidity;BME280_pressure;Samples;Min_cycle;Max_cycle;Signal;HPM_P1;HPM_P2
2021/03/01 00:00:56;;;;;;;4.42;3.27;;;;;;;3.71;70.94;99992.99;1803933;79;20981;-42
2021/03/01 00:03:24;;;;;;;5.28;3.65;;;;;;;3.73;70.89;99999.38;1735264;82;21565;-41
2021/03/01 00:05:52;;;;;;;5.67;4.08;;;;;;;3.71;70.83;100006.94;1735169;82;21025;-42
2021/03/01 00:08:20;;;;;;;5.53;3.85;;;;;;;3.68;70.92;100013.68;1735162;82;21005;-41
2021/03/01 00:10:50;;;;;;;4.08;3.47;;;;;;;3.64;70.98;100016.71;1735299;82;20973;-41
2021/03/01 00:13:20;;;;;;;4.22;3.47;;;;;;;3.61;71.04;100018.66;1735265;82;21064;-41
2021/03/01 00:15:49;;;;;;;3.55;3.10;;;;;;;3.64;71.01;100016.71;1735261;82;22100;-42
2021/03/01 00:18:18;;;;;;;3.75;2.85;;;;;;;3.63;70.97;100015.12;1735245;82;21061;-42
2021/03/01 00:20:46;;;;;;;4.12;3.72;;;;;;;3.60;71.10;100015.72;1735239;82;21025;-41
2021/03/01 00:23:14;;;;;;;5.78;3.62;;;;;;;3.58;71.21;100011.22;1735233;82;21150;-41
2021/03/01 00:25:42;;;;;;;4.22;3.83;;;;;;;3.57;71.21;100012.30;1735225;82;21159;-41
2021/03/01 00:28:11;;;;;;;4.53;3.90;;;;;;;3.58;71.22;100007.73;1735418;82;22138;-42
2021/03/01 00:30:39;;;;;;;4.53;3.77;;;;;;;3.56;71.25;100009.37;1739344;82;21086;-41
2021/03/01 00:33:08;;;;;;;5.83;3.83;;;;;;;3.55;71.23;100009.11;1713671;83;21048;-42
2021/03/01 00:35:36;;;;;;;4.58;3.77;;;;;;;3.59;71.21;99998.04;1713693;83;21170;-41
2021/03/01 00:38:06;;;;;;;3.58;3.27;;;;;;;3.65;71.19;100013.48;1739551;82;21209;-42
2021/03/01 00:40:35;;;;;;;5.47;3.83;;;;;;;3.64;71.14;100021.28;1713653;83;21294;-41
2021/03/01 00:43:03;;;;;;;4.30;3.70;;;;;;;3.63;71.16;100021.05;1713604;83;21178;-42
2021/03/01 00:45:32;;;;;;;4.25;3.83;;;;;;;3.60;71.15;100031.81;1739364;82;21161;-42
2021/03/01 00:48:01;;;;;;;4.40;3.80;;;;;;;3.56;71.24;100034.84;1713651;83;22321;-41
2021/03/01 00:50:29;;;;;;;3.70;3.35;;;;;;;3.50;71.31;100031.99;1713608;83;21167;-40
2021/03/01 00:52:58;;;;;;;3.52;3.08;;;;;;;3.49;71.41;100031.73;1739695;82;21189;-42
2021/03/01 00:55:27;;;;;;;3.70;3.40;;;;;;;3.55;71.46;100033.23;1713545;83;21119;-41
2021/03/01 00:57:56;;;;;;;4.70;3.75;;;;;;;3.59;71.50;100032.09;1715729;83;21171;-41
2021/03/01 01:00:24;;;;;;;4.30;3.30;;;;;;;3.60;71.50;100035.83;1716965;83;21158;-41
2021/03/01 01:02:54;;;;;;;3.67;3.35;;;;;;;3.56;71.42;100042.08;1716077;83;21170;-42
2021/03/01 01:05:24;;;;;;;3.87;3.40;;;;;;;3.53;71.56;100058.77;1716088;83;23464;-41
2021/03/01 01:07:53;;;;;;;3.90;3.27;;;;;;;3.48;71.53;100064.48;1716723;83;21086;-41
2021/03/01 01:10:21;;;;;;;3.98;3.05;;;;;;;3.45;71.54;100076.31;1716475;83;21459;-41
2021/03/01 01:12:49;;;;;;;3.27;2.90;;;;;;;3.42;71.68;100086.29;1716463;83;21169;-41
2021/03/01 01:15:18;;;;;;;3.02;2.72;;;;;;;3.35;71.84;100093.36;1716434;83;21162;-41
2021/03/01 01:17:46;;;;;;;3.20;2.90;;;;;;;3.29;71.95;100090.50;1716375;83;21204;-41
2021/03/01 01:20:16;;;;;;;2.37;2.15;;;;;;;3.24;71.98;100097.86;1716575;83;21593;-41
2021/03/01 01:22:44;;;;;;;3.08;2.20;;;;;;;3.17;71.93;100104.92;1716388;83;21154;-41
2021/03/01 01:25:14;;;;;;;2.42;2.22;;;;;;;3.13;72.06;100102.58;1716371;83;21194;-41
2021/03/01 01:27:42;;;;;;;2.17;1.98;;;;;;;3.15;71.97;100108.98;1716576;83;21162;-41
2021/03/01 01:30:15;;;;;;;2.62;2.33;;;;;;;3.12;72.19;100109.55;1716430;82;22636;-41
2021/03/01 01:32:43;;;;;;;2.70;2.47;;;;;;;3.12;72.38;100120.27;1715978;83;21071;-42
2021/03/01 01:35:13;;;;;;;3.00;2.37;;;;;;;3.08;72.46;100132.12;1716559;83;21613;-41
2021/03/01 01:37:41;;;;;;;3.33;2.50;;;;;;;3.05;72.49;100138.03;1716612;83;21167;-42
2021/03/01 01:40:12;;;;;;;4.05;2.70;;;;;;;3.08;72.37;100135.34;1716517;83;21190;-41
2021/03/01 01:42:40;;;;;;;2.70;2.00;;;;;;;3.10;72.22;100141.21;1716485;83;21182;-42
2021/03/01 01:45:18;;;;;;;2.30;1.87;;;;;;;3.05;72.04;100147.41;1716425;83;21589;-41
2021/03/01 01:47:48;;;;;;;2.25;1.98;;;;;;;2.96;72.16;100149.95;1716482;83;21122;-42
2021/03/01 01:50:22;;;;;;;3.62;2.60;;;;;;;2.92;72.37;100150.83;1716500;83;21154;-41
2021/03/01 01:52:51;;;;;;;3.55;2.08;;;;;;;2.93;72.32;100154.56;1716396;83;21188;-42
2021/03/01 01:55:20;;;;;;;3.35;1.75;;;;;;;2.94;72.28;100160.17;1716578;83;21199;-41
2021/03/01 01:57:48;;;;;;;2.55;1.98;;;;;;;3.01;71.95;100163.81;1684512;84;21186;-41
2021/03/01 02:00:31;;;;;;;2.05;1.65;;;;;;;3.05;71.57;100169.64;1720775;83;21114;-42
2021/03/01 02:03:02;;;;;;;2.00;1.70;;;;;;;3.04;71.58;100172.09;1719222;83;21471;-42
2021/03/01 02:05:30;;;;;;;2.77;2.05;;;;;;;3.03;71.70;100169.16;1720997;83;21615;-42
2021/03/01 02:08:10;;;;;;;2.25;1.85;;;;;;;3.00;71.68;100171.05;1671599;83;21379;-41
2021/03/01 02:10:51;;;;;;;2.37;1.97;;;;;;;3.00;71.77;100173.73;1721053;83;21158;-41
2021/03/01 02:13:46;;;;;;;1.90;1.70;;;;;;;3.02;71.72;100174.79;1715531;83;22250;-41
2021/03/01 02:16:21;;;;;;;1.52;1.40;;;;;;;3.10;71.60;100162.64;1731982;82;21186;-42
2021/03/01 02:18:49;;;;;;;2.02;1.82;;;;;;;3.12;71.64;100173.84;1743778;81;21609;-42
2021/03/01 02:21:18;;;;;;;1.98;1.77;;;;;;;3.11;71.61;100175.73;1771085;81;21283;-43
2021/03/01 02:23:46;;;;;;;2.77;2.02;;;;;;;3.11;71.75;100184.30;1771235;81;21589;-41
2021/03/01 02:26:22;;;;;;;2.47;2.05;;;;;;;3.11;71.71;100191.00;1771212;81;21115;-42
2021/03/01 02:28:53;;;;;;;1.62;1.52;;;;;;;3.11;71.73;100184.30;1771082;79;21186;-41
2021/03/01 02:31:23;;;;;;;2.10;1.80;;;;;;;3.17;71.67;100182.61;1771267;81;21209;-42
2021/03/01 02:33:57;;;;;;;2.85;1.98;;;;;;;3.29;71.51;100188.31;1771049;81;21423;-42
2021/03/01 02:36:32;;;;;;;2.60;2.12;;;;;;;3.35;71.29;100185.02;1771227;81;21135;-42
2021/03/01 02:39:01;;;;;;;3.70;2.30;;;;;;;3.37;71.17;100187.67;1770776;81;21166;-43
2021/03/01 02:41:29;;;;;;;3.45;1.95;;;;;;;3.38;71.17;100194.64;1771546;81;21652;-42
2021/03/01 02:43:58;;;;;;;1.90;1.80;;;;;;;3.40;71.09;100195.12;1771226;81;21166;-42
2021/03/01 02:46:26;;;;;;;2.20;2.00;;;;;;;3.40;70.87;100197.80;1771327;81;21174;-42
2021/03/01 02:48:54;;;;;;;2.10;1.90;;;;;;;3.37;70.78;100200.28;1771157;81;21628;-42
2021/03/01 02:51:23;;;;;;;2.65;2.10;;;;;;;3.34;70.87;100209.68;1743556;81;21155;-42
2021/03/01 02:53:51;;;;;;;2.10;1.80;;;;;;;3.37;70.82;100211.00;1771307;81;21859;-43
2021/03/01 02:56:19;;;;;;;1.98;1.62;;;;;;;3.41;70.67;100218.70;1781314;79;21411;-43
2021/03/01 02:58:49;;;;;;;2.25;1.80;;;;;;;3.44;70.66;100228.83;1797887;78;21374;-43
2021/03/01 03:01:18;;;;;;;2.62;1.95;;;;;;;3.42;70.69;100222.45;1796600;79;21147;-42
2021/03/01 03:03:47;;;;;;;2.52;2.00;;;;;;;3.43;70.71;100239.33;1796317;79;21170;-42
2021/03/01 03:06:17;;;;;;;2.22;1.95;;;;;;;3.40;70.72;100241.23;1796571;79;21545;-43
2021/03/01 03:08:46;;;;;;;1.90;1.77;;;;;;;3.38;70.77;100246.10;1796436;79;21119;-43
2021/03/01 03:11:19;;;;;;;1.67;1.50;;;;;;;3.34;70.84;100239.16;1796451;79;21355;-42
2021/03/01 03:13:47;;;;;;;1.92;1.52;;;;;;;3.37;70.80;100253.88;1775140;79;21565;-42
2021/03/01 03:16:18;;;;;;;1.10;1.02;;;;;;;3.42;70.63;100251.93;1796673;79;21174;-43
2021/03/01 03:18:46;;;;;;;1.42;1.30;;;;;;;3.45;70.47;100255.90;1796356;79;21076;-43
2021/03/01 03:21:14;;;;;;;1.50;1.40;;;;;;;3.43;70.26;100252.19;1796462;79;21150;-42
2021/03/01 03:23:42;;;;;;;2.10;1.42;;;;;;;3.40;70.20;100266.16;1796393;79;21327;-41
2021/03/01 03:26:13;;;;;;;1.57;1.40;;;;;;;3.38;69.93;100268.88;1796316;79;20984;-42
2021/03/01 03:28:44;;;;;;;;;;;;;;;3.31;69.26;100273.79;1791546;79;21154;-43
2021/03/01 03:31:12;;;;;;;1.52;1.17;;;;;;;3.21;69.15;100271.24;1764990;81;20549;-42
2021/03/01 03:33:41;;;;;;;1.30;1.20;;;;;;;3.04;69.56;100278.44;1764970;81;21182;-42
2021/03/01 03:36:10;;;;;;;1.25;1.12;;;;;;;3.07;69.63;100279.20;1764942;81;23450;-43
2021/03/01 03:38:52;;;;;;;1.43;1.10;;;;;;;3.13;69.60;100279.94;1765030;80;21142;-43
2021/03/01 03:41:20;;;;;;;1.55;1.22;;;;;;;3.15;69.73;100283.13;1763490;81;21048;-42
2021/03/01 03:43:48;;;;;;;1.32;1.20;;;;;;;3.19;70.00;100290.84;1764902;80;21126;-43
2021/03/01 03:46:17;;;;;;;2.05;1.50;;;;;;;3.22;70.10;100291.06;1764887;81;21125;-42
2021/03/01 03:48:49;;;;;;;1.82;1.67;;;;;;;3.28;70.07;100296.62;1764955;81;22387;-44
2021/03/01 03:51:17;;;;;;;2.12;1.50;;;;;;;3.28;70.01;100291.80;1764821;81;21111;-42
2021/03/01 03:53:51;;;;;;;1.47;1.37;;;;;;;3.27;70.08;100290.20;1719811;81;21597;-42
2021/03/01 03:56:23;;;;;;;1.57;1.47;;;;;;;3.25;69.98;100294.50;1764937;80;21154;-42
2021/03/01 03:58:59;;;;;;;1.75;1.30;;;;;;;3.29;70.07;100296.08;1768858;80;21711;-43
2021/03/01 04:01:28;;;;;;;1.90;1.60;;;;;;;3.33;70.16;100294.41;1782398;79;21445;-43
2021/03/01 04:04:00;;;;;;;2.15;1.50;;;;;;;3.38;70.07;100294.34;1782007;79;21126;-42
2021/03/01 04:06:28;;;;;;;1.87;1.60;;;;;;;3.38;69.94;100301.05;1753770;80;20991;-42
2021/03/01 04:08:56;;;;;;;2.37;1.60;;;;;;;3.35;69.87;100303.74;1781779;80;21051;-42
2021/03/01 04:11:25;;;;;;;2.35;1.80;;;;;;;3.31;69.95;100305.95;1781860;80;21185;-43
2021/03/01 04:13:54;;;;;;;3.05;1.40;;;;;;;3.27;70.01;100308.95;1781786;80;21196;-42
2021/03/01 04:16:23;;;;;;;2.00;1.07;;;;;;;3.26;69.95;100307.35;1782215;80;21541;-42
2021/03/01 04:18:56;;;;;;;1.85;1.40;;;;;;;3.33;69.87;100313.17;1781801;80;21314;-43
2021/03/01 04:21:24;;;;;;;2.52;1.77;;;;;;;3.37;69.78;100313.64;1779108;80;21616;-43
2021/03/01 04:23:53;;;;;;;1.82;1.47;;;;;;;3.38;69.75;100315.78;1727885;80;21103;-43
2021/03/01 04:26:21;;;;;;;2.20;1.70;;;;;;;3.37;69.78;100319.55;1781799;80;21367;-43
2021/03/01 04:28:49;;;;;;;2.25;1.80;;;;;;;3.37;69.76;100323.56;1729519;80;21571;-42
2021/03/01 04:31:18;;;;;;;1.90;1.70;;;;;;;3.38;69.74;100329.19;1753959;80;21039;-42
2021/03/01 04:33:46;;;;;;;2.80;1.62;;;;;;;3.37;69.67;100327.59;1779081;80;21125;-42
2021/03/01 04:36:14;;;;;;;1.62;1.52;;;;;;;3.32;69.77;100319.61;1781862;79;21142;-42
2021/03/01 04:38:43;;;;;;;1.75;1.60;;;;;;;3.36;69.76;100321.42;1781793;80;21154;-42
2021/03/01 04:41:11;;;;;;;3.25;2.05;;;;;;;3.47;69.59;100325.58;1781815;80;21122;-42
2021/03/01 04:43:40;;;;;;;2.00;1.80;;;;;;;3.54;69.40;100335.92;1781947;79;21039;-42
2021/03/01 04:46:08;;;;;;;3.52;1.90;;;;;;;3.56;69.39;100329.74;1781960;79;21130;-43
2021/03/01 04:48:37;;;;;;;2.12;1.80;;;;;;;3.60;69.29;100335.31;1782043;79;21548;-42
2021/03/01 04:51:05;;;;;;;2.67;1.92;;;;;;;3.61;69.25;100341.73;1782039;79;21271;-42
2021/03/01 04:53:34;;;;;;;2.02;1.85;;;;;;;3.63;69.18;100338.20;1753891;80;21162;-42
2021/03/01 04:56:05;;;;;;;1.80;1.70;;;;;;;3.63;69.08;100339.55;1782159;79;21601;-43
2021/03/01 04:58:36;;;;;;;3.50;2.10;;;;;;;3.62;69.09;100355.41;1782080;80;27027;-42
2021/03/01 05:01:08;;;;;;;2.67;1.82;;;;;;;3.59;69.17;100357.84;1782047;80;21169;-42
2021/03/01 05:03:38;;;;;;;2.85;1.80;;;;;;;3.63;69.21;100361.57;1781908;79;21182;-42
2021/03/01 05:06:06;;;;;;;1.80;1.45;;;;;;;3.69;69.07;100358.52;1782092;80;21178;-42
2021/03/01 05:08:36;;;;;;;2.35;2.10;;;;;;;3.73;69.04;100367.56;1782012;79;21110;-43
2021/03/01 05:11:05;;;;;;;3.42;2.30;;;;;;;3.72;69.03;100366.00;1782123;80;21142;-42
2021/03/01 05:13:34;;;;;;;2.10;1.90;;;;;;;3.72;69.05;100378.06;1782042;80;21094;-43
2021/03/01 05:16:04;;;;;;;2.87;2.50;;;;;;;3.70;69.12;100383.45;1782010;80;21933;-42
2021/03/01 05:18:33;;;;;;;3.30;2.62;;;;;;;3.68;69.16;100395.02;1781909;79;21000;-42
2021/03/01 05:21:01;;;;;;;3.62;2.58;;;;;;;3.65;69.26;100408.98;1781938;80;21138;-42
2021/03/01 05:23:30;;;;;;;2.67;2.47;;;;;;;3.63;69.30;100414.62;1781960;80;21174;-42
2021/03/01 05:25:58;;;;;;;4.47;2.12;;;;;;;3.62;69.24;100422.44;1781954;79;21135;-42
2021/03/01 05:28:26;;;;;;;2.30;1.95;;;;;;;3.67;69.26;100421.58;1786641;79;21319;-42
2021/03/01 05:30:55;;;;;;;2.50;2.00;;;;;;;3.73;69.17;100423.89;1813960;79;20972;-42
2021/03/01 05:33:23;;;;;;;3.42;2.33;;;;;;;3.73;69.06;100426.57;1814207;78;21543;-42
2021/03/01 05:35:52;;;;;;;3.52;1.90;;;;;;;3.73;69.05;100429.25;1813992;79;21142;-43
2021/03/01 05:38:20;;;;;;;2.95;2.47;;;;;;;3.74;68.97;100428.17;1814016;79;21457;-43
2021/03/01 05:40:48;;;;;;;2.98;2.37;;;;;;;3.75;68.86;100433.80;1814007;78;22355;-41
2021/03/01 05:43:17;;;;;;;4.85;3.50;;;;;;;3.74;68.93;100433.53;1814211;79;21126;-42
2021/03/01 05:45:45;;;;;;;5.12;3.87;;;;;;;3.73;68.92;100437.84;1813976;79;21576;-42
2021/03/01 05:48:15;;;;;;;5.50;3.92;;;;;;;3.72;68.92;100449.13;1813973;79;21146;-42
2021/03/01 05:50:43;;;;;;;7.03;4.20;;;;;;;3.76;68.93;100452.03;1814264;79;21453;-43
2021/03/01 05:53:18;;;;;;;4.87;3.33;;;;;;;3.84;68.88;100458.89;1814257;79;21457;-42
2021/03/01 05:55:48;;;;;;;2.87;2.27;;;;;;;3.90;68.75;100459.62;1813924;78;21174;-42
2021/03/01 05:58:17;;;;;;;2.42;2.22;;;;;;;3.91;68.84;100467.39;1814109;79;21143;-42
2021/03/01 06:00:45;;;;;;;2.77;2.40;;;;;;;3.97;68.73;100478.83;1775123;79;21187;-42
2021/03/01 06:03:14;;;;;;;2.90;2.20;;;;;;;4.00;68.65;100486.86;1802674;79;21171;-42
2021/03/01 06:05:43;;;;;;;2.58;2.33;;;;;;;4.03;68.60;100492.45;1776483;79;21440;-42
2021/03/01 06:08:11;;;;;;;3.02;2.50;;;;;;;4.05;68.43;100495.66;1770668;81;21206;-42
2021/03/01 06:10:39;;;;;;;3.00;2.70;;;;;;;4.04;68.33;100494.59;1770670;81;21162;-42
2021/03/01 06:13:08;;;;;;;3.20;2.77;;;;;;;3.99;68.26;100508.07;1771026;81;21586;-42
2021/03/01 06:15:37;;;;;;;3.98;3.22;;;;;;;3.97;68.29;100508.92;1770644;81;21083;-42
2021/03/01 06:18:10;;;;;;;3.47;2.90;;;;;;;4.01;68.24;100511.28;1770937;81;22283;-42
2021/03/01 06:20:40;;;;;;;3.80;3.12;;;;;;;4.03;68.26;100521.97;1770699;80;21032;-42
2021/03/01 06:23:09;;;;;;;4.05;2.98;;;;;;;4.02;68.27;100522.27;1770762;81;21624;-43
2021/03/01 06:25:38;;;;;;;5.00;3.60;;;;;;;4.04;68.31;100526.79;1770644;81;21135;-42
2021/03/01 06:28:07;;;;;;;3.40;3.10;;;;;;;4.02;68.11;100531.66;1770937;79;21107;-43
2021/03/01 06:30:38;;;;;;;3.50;3.15;;;;;;;3.93;68.14;100543.01;1802355;79;22218;-43
2021/03/01 06:33:18;;;;;;;3.67;3.05;;;;;;;3.86;68.25;100539.89;1779584;79;21150;-42
2021/03/01 06:35:55;;;;;;;3.77;3.22;;;;;;;3.75;68.41;100547.78;1770734;80;21107;-43
2021/03/01 06:38:30;;;;;;;3.80;2.87;;;;;;;3.69;68.61;100546.23;1770678;81;21023;-43
2021/03/01 06:41:14;;;;;;;4.05;3.17;;;;;;;3.67;68.74;100547.61;1770857;81;21585;-43
2021/03/01 06:43:56;;;;;;;3.70;3.30;;;;;;;3.68;68.70;100549.22;1770778;81;22260;-43
2021/03/01 06:46:27;;;;;;;4.55;3.70;;;;;;;3.65;69.00;100559.95;1770694;81;21626;-42
2021/03/01 06:48:56;;;;;;;5.00;3.90;;;;;;;3.64;68.99;100562.37;1770786;80;21601;-43
2021/03/01 06:51:24;;;;;;;4.72;3.52;;;;;;;3.65;69.09;100566.66;1740647;81;21162;-43
2021/03/01 06:54:02;;;;;;;5.45;4.00;;;;;;;3.66;69.09;100570.95;1716758;81;21126;-43
2021/03/01 06:56:40;;;;;;;4.60;3.67;;;;;;;3.63;69.16;100578.77;1770757;81;21922;-43
2021/03/01 06:59:16;;;;;;;3.90;3.47;;;;;;;3.59;69.35;100581.19;1770612;80;21110;-42
2021/03/01 07:01:52;;;;;;;4.72;3.75;;;;;;;3.66;69.33;100583.55;1771067;81;21016;-42
2021/03/01 07:04:27;;;;;;;4.47;4.08;;;;;;;3.71;69.21;100588.33;1771313;80;21612;-42
2021/03/01 07:06:58;;;;;;;4.40;3.90;;;;;;;3.72;69.25;100587.25;1771265;80;21167;-43
2021/03/01 07:09:29;;;;;;;8.40;4.40;;;;;;;3.77;69.32;100591.77;1771258;81;21209;-43
2021/03/01 07:11:57;;;;;;;3.90;3.50;;;;;;;3.81;69.32;100593.59;1771148;81;21580;-43
2021/03/01 07:14:27;;;;;;;5.28;3.55;;;;;;;3.83;69.31;100587.92;1771180;80;21162;-42
2021/03/01 07:16:59;;;;;;;;;;;;;;;3.85;69.20;100589.25;1773873;81;21715;-42
2021/03/01 07:19:33;;;;;;;5.25;4.17;;;;;;;3.86;69.17;100589.52;1771149;81;20262;-42
2021/03/01 07:22:06;;;;;;;3.67;3.22;;;;;;;3.76;69.37;100594.18;1771158;81;21330;-43
2021/03/01 07:24:35;;;;;;;3.90;3.40;;;;;;;3.82;69.34;100597.08;1771153;80;21103;-42
2021/03/01 07:27:05;;;;;;;4.75;3.30;;;;;;;3.93;69.15;100606.05;1771182;81;21621;-42
2021/03/01 07:32:16;;;;;;;5.50;3.98;;;;;;;4.07;68.92;100601.34;1874002;76;22818;-41
2021/03/01 07:34:45;;;;;;;4.80;3.60;;;;;;;4.07;68.98;100604.02;1842950;77;21116;-41
2021/03/01 07:37:13;;;;;;;4.35;3.70;;;;;;;4.13;68.84;100606.37;1845960;77;21131;-41
2021/03/01 07:39:41;;;;;;;4.85;3.55;;;;;;;4.15;68.68;100607.44;1845956;77;20977;-42
2021/03/01 07:42:12;;;;;;;4.25;3.42;;;;;;;4.16;68.66;100609.05;1845967;77;20982;-41
2021/03/01 07:44:40;;;;;;;4.78;3.62;;;;;;;4.20;68.54;100610.06;1845967;77;21136;-41
2021/03/01 07:47:08;;;;;;;4.33;3.62;;;;;;;4.27;68.60;100607.81;1845957;77;21021;-41
2021/03/01 07:49:47;;;;;;;4.20;3.80;;;;;;;4.35;68.64;100614.71;1845900;77;21005;-41
2021/03/01 07:52:27;;;;;;;5.80;3.70;;;;;;;4.44;68.48;100608.70;1845873;77;20938;-42
2021/03/01 07:55:10;;;;;;;4.83;3.45;;;;;;;4.54;68.39;100612.59;1845940;77;21285;-41
2021/03/01 07:57:45;;;;;;;4.03;3.33;;;;;;;4.66;68.00;100615.10;1809228;78;23573;-42
2021/03/01 08:00:30;;;;;;;3.45;3.15;;;;;;;4.64;67.75;100613.80;1751863;80;21027;-42
2021/03/01 08:02:59;;;;;;;6.58;3.58;;;;;;;4.62;67.57;100622.69;1784058;80;21292;-42
2021/03/01 08:05:30;;;;;;;4.20;3.65;;;;;;;4.50;67.54;100622.32;1783985;80;21015;-42
2021/03/01 08:07:59;;;;;;;3.42;2.98;;;;;;;4.46;67.74;100626.10;1784035;80;21010;-42
2021/03/01 08:10:35;;;;;;;3.77;2.67;;;;;;;4.51;67.79;100634.64;1779420;80;21541;-42
2021/03/01 08:13:06;;;;;;;3.80;3.15;;;;;;;4.53;67.55;100639.19;1784026;80;20979;-42
2021/03/01 08:15:44;;;;;;;5.10;3.60;;;;;;;4.50;67.62;100635.75;1784217;80;21201;-43
2021/03/01 08:18:13;;;;;;;4.58;3.40;;;;;;;4.48;67.81;100632.53;1783963;80;21003;-41
2021/03/01 08:20:54;;;;;;;5.15;3.87;;;;;;;4.47;67.70;100627.70;1784318;80;21585;-41
2021/03/01 08:23:30;;;;;;;7.30;3.87;;;;;;;4.44;67.67;100637.69;1784299;80;21608;-41
2021/03/01 08:25:59;;;;;;;9.80;4.90;;;;;;;4.42;67.68;100638.51;1753734;80;21141;-42
2021/03/01 08:28:37;;;;;;;5.92;4.20;;;;;;;4.36;67.73;100642.33;1789915;79;21438;-41
2021/03/01 08:31:23;;;;;;;7.25;4.60;;;;;;;4.33;67.91;100638.89;1816102;79;21050;-41
2021/03/01 08:33:52;;;;;;;4.42;3.30;;;;;;;4.35;68.04;100643.44;1816281;78;21612;-41
2021/03/01 08:36:25;;;;;;;;;;;;;;;4.45;68.07;100646.55;1818502;79;21750;-42
2021/03/01 08:38:54;;;;;;;3.20;2.90;;;;;;;4.52;67.89;100646.98;1816355;79;20231;-41
2021/03/01 08:41:37;;;;;;;5.12;3.10;;;;;;;4.44;67.99;100645.75;1811881;79;21273;-42
2021/03/01 08:44:16;;;;;;;6.08;4.10;;;;;;;4.50;68.06;100653.20;1816258;79;21162;-41
2021/03/01 08:46:57;;;;;;;5.47;3.50;;;;;;;4.59;67.70;100653.62;1831441;78;22883;-41
2021/03/01 08:49:25;;;;;;;5.37;3.92;;;;;;;4.56;67.75;100661.43;1750011;79;21001;-42
2021/03/01 08:51:55;;;;;;;4.50;3.17;;;;;;;4.60;67.72;100662.48;1735173;82;23522;-41
2021/03/01 08:54:30;;;;;;;7.60;4.53;;;;;;;4.59;67.60;100661.67;1735148;82;21056;-41
2021/03/01 08:57:05;;;;;;;5.15;3.85;;;;;;;4.58;67.69;100664.09;1735211;82;21638;-41
2021/03/01 08:59:34;;;;;;;5.55;3.60;;;;;;;4.67;67.73;100670.97;1735312;82;21584;-41
2021/03/01 09:02:03;;;;;;;6.70;3.60;;;;;;;4.75;67.28;100675.69;1735277;82;21680;-42
2021/03/01 09:04:31;;;;;;;6.35;4.00;;;;;;;4.76;67.30;100678.09;1735339;82;22141;-42
2021/03/01 09:07:08;;;;;;;5.45;3.72;;;;;;;4.80;67.30;100684.48;1735055;82;20993;-41
2021/03/01 09:09:47;;;;;;;5.08;3.55;;;;;;;4.83;67.07;100688.50;1735275;82;21155;-41
2021/03/01 09:12:20;;;;;;;2.97;2.67;;;;;;;4.85;67.12;100688.19;1735353;82;21198;-41
2021/03/01 09:14:47;;;;;;;4.87;3.37;;;;;;;4.87;67.07;100691.41;1735360;82;21601;-41
2021/03/01 09:17:16;;;;;;;6.03;3.80;;;;;;;4.87;66.71;100699.47;1735220;82;21383;-41
2021/03/01 09:19:44;;;;;;;4.10;3.08;;;;;;;4.86;66.56;100693.29;1735082;82;21170;-41
2021/03/01 09:22:12;;;;;;;4.50;3.17;;;;;;;4.82;66.26;100700.33;1735250;82;21135;-42
2021/03/01 09:24:41;;;;;;;5.05;3.58;;;;;;;4.76;66.57;100706.84;1735056;82;21132;-41
2021/03/01 09:27:09;;;;;;;3.87;3.12;;;;;;;4.78;66.76;100712.20;1735310;82;21574;-42
2021/03/01 09:29:37;;;;;;;6.80;3.98;;;;;;;4.88;66.53;100717.99;1738021;82;21134;-41
2021/03/01 09:32:07;;;;;;;4.00;3.35;;;;;;;4.95;66.23;100720.30;1739310;82;21039;-41
2021/03/01 09:34:35;;;;;;;4.90;3.27;;;;;;;4.96;66.10;100723.26;1713841;83;21146;-42
2021/03/01 09:37:05;;;;;;;3.37;2.70;;;;;;;4.94;65.99;100718.73;1712752;83;21186;-42
2021/03/01 09:39:37;;;;;;;5.67;3.70;;;;;;;4.97;65.91;100720.83;1739370;82;21680;-41
2021/03/01 09:42:06;;;;;;;6.20;4.22;;;;;;;4.95;65.91;100725.68;1660900;83;21212;-41
2021/03/01 09:44:37;;;;;;;3.77;2.77;;;;;;;4.93;65.91;100721.16;1689721;84;21207;-41
2021/03/01 09:47:08;;;;;;;3.58;3.05;;;;;;;4.94;66.09;100724.11;1685915;84;21632;-42
2021/03/01 09:49:39;;;;;;;4.40;3.22;;;;;;;4.95;66.17;100723.80;1686837;83;21584;-42
2021/03/01 09:52:08;;;;;;;3.20;2.90;;;;;;;5.00;65.89;100728.30;1714009;83;21605;-42
2021/03/01 09:54:39;;;;;;;2.60;2.33;;;;;;;4.99;65.88;100724.02;1714159;83;21210;-42
2021/03/01 09:57:09;;;;;;;7.00;3.72;;;;;;;5.04;65.90;100726.63;1713751;83;21629;-42
2021/03/01 09:59:39;;;;;;;3.92;3.05;;;;;;;5.12;65.78;100725.47;1713674;83;21221;-41
2021/03/01 10:02:15;;;;;;;5.50;3.50;;;;;;;5.16;65.48;100726.48;1713487;83;21158;-42
2021/03/01 10:04:45;;;;;;;5.78;3.62;;;;;;;5.17;65.44;100732.66;1713383;83;21146;-41
2021/03/01 10:07:25;;;;;;;3.55;2.90;;;;;;;5.19;65.58;100731.27;1709672;83;21293;-42
2021/03/01 10:09:55;;;;;;;3.30;2.75;;;;;;;5.20;65.45;100723.47;1713388;83;21616;-43
2021/03/01 10:12:24;;;;;;;2.80;2.60;;;;;;;5.27;65.59;100720.42;1713571;83;21175;-41
2021/03/01 10:14:58;;;;;;;5.37;3.42;;;;;;;5.33;65.63;100725.95;1713801;82;21162;-41
2021/03/01 10:17:31;;;;;;;3.55;2.80;;;;;;;5.37;65.45;100720.82;1713382;83;21151;-42
2021/03/01 10:20:07;;;;;;;4.37;3.30;;;;;;;5.41;65.52;100719.14;1713464;83;21196;-42
2021/03/01 10:23:03;;;;;;;2.98;2.67;;;;;;;5.44;65.27;100718.00;1713373;83;21020;-42
2021/03/01 10:25:38;;;;;;;3.40;2.70;;;;;;;5.51;64.97;100717.64;1713400;83;21468;-42
2021/03/01 10:28:33;;;;;;;2.75;2.40;;;;;;;5.60;64.77;100713.20;1713694;82;21641;-42
2021/03/01 10:31:15;;;;;;;2.70;2.17;;;;;;;5.70;64.60;100710.34;1743051;82;21167;-42
2021/03/01 10:34:08;;;;;;;3.15;2.80;;;;;;;5.78;64.15;100710.21;1743126;82;22906;-42
2021/03/01 10:36:54;;;;;;;2.62;2.25;;;;;;;5.82;64.08;100712.56;1732093;82;21194;-41
2021/03/01 10:39:32;;;;;;;2.52;2.33;;;;;;;5.84;63.86;100714.42;1734097;82;21024;-41
2021/03/01 10:42:12;;;;;;;2.67;2.47;;;;;;;5.89;63.86;100717.06;1713397;83;21581;-42
2021/03/01 10:44:57;;;;;;;3.02;2.50;;;;;;;5.89;63.80;100713.03;1715600;82;21198;-41
2021/03/01 10:47:28;;;;;;;3.12;2.42;;;;;;;5.89;63.49;100718.41;1720436;83;22103;-42
2021/03/01 10:49:59;;;;;;;2.80;2.50;;;;;;;5.87;63.35;100725.97;1733661;82;21158;-42
2021/03/01 10:52:28;;;;;;;2.87;2.40;;;;;;;5.87;63.53;100723.27;1749250;82;21193;-41
2021/03/01 10:54:58;;;;;;;2.10;1.90;;;;;;;5.87;63.50;100721.38;1745820;82;21177;-41
2021/03/01 10:57:26;;;;;;;1.90;1.77;;;;;;;5.91;63.56;100731.01;1742056;82;21178;-41
2021/03/01 10:59:58;;;;;;;3.00;2.17;;;;;;;5.90;62.98;100737.50;1730239;80;22142;-42
2021/03/01 11:02:26;;;;;;;;;;;;;;;5.82;63.32;100734.09;1737331;82;21182;-41
2021/03/01 11:04:54;;;;;;;2.60;2.00;;;;;;;5.80;63.21;100731.71;1730641;82;20591;-41
2021/03/01 11:07:25;;;;;;;2.52;2.10;;;;;;;5.74;63.62;100734.77;1720746;83;21142;-41
2021/03/01 11:09:52;;;;;;;;;;;;;;;5.81;63.56;100733.29;1738856;82;21163;-41
2021/03/01 11:12:21;;;;;;;4.28;1.87;;;;;;;5.91;63.04;100732.35;1725915;82;20541;-42
2021/03/01 11:14:49;;;;;;;4.12;2.67;;;;;;;5.92;63.11;100732.61;1737460;82;21198;-41
2021/03/01 11:17:17;;;;;;;6.08;2.40;;;;;;;5.99;63.03;100739.77;1730329;82;21023;-42
2021/03/01 11:19:46;;;;;;;3.02;2.52;;;;;;;6.05;63.00;100734.56;1741515;82;21484;-41
2021/03/01 11:22:14;;;;;;;3.52;2.40;;;;;;;6.09;62.54;100729.64;1732160;82;21170;-41
2021/03/01 11:24:42;;;;;;;2.27;1.82;;;;;;;6.14;62.65;100735.48;1720725;83;21349;-41
2021/03/01 11:27:10;;;;;;;2.55;2.20;;;;;;;6.19;62.42;100730.00;1735131;82;21150;-41
2021/03/01 11:29:38;;;;;;;3.02;2.20;;;;;;;6.21;62.02;100734.53;1741953;82;21186;-42
2021/03/01 11:32:07;;;;;;;3.83;2.40;;;;;;;6.18;61.85;100735.13;1731903;82;21149;-42
2021/03/01 11:34:36;;;;;;;3.08;2.40;;;;;;;6.19;61.77;100730.00;1750243;82;21692;-41
2021/03/01 11:37:05;;;;;;;3.45;1.87;;;;;;;6.18;61.74;100731.09;1732299;82;21370;-41
2021/03/01 11:39:33;;;;;;;2.47;1.90;;;;;;;6.14;61.73;100732.78;1730214;82;21194;-41
2021/03/01 11:42:01;;;;;;;3.02;2.40;;;;;;;6.04;61.93;100728.37;1732271;82;20992;-42
2021/03/01 11:44:30;;;;;;;2.40;2.20;;;;;;;6.00;62.05;100733.30;1721415;82;21417;-42
2021/03/01 11:46:58;;;;;;;3.00;2.52;;;;;;;5.94;62.05;100739.86;1730368;81;21174;-41
2021/03/01 11:49:26;;;;;;;3.90;2.62;;;;;;;5.89;62.32;100739.94;1726690;82;21391;-41
2021/03/01 11:51:54;;;;;;;2.55;2.33;;;;;;;5.79;62.35;100734.69;1739699;81;21151;-41
2021/03/01 11:54:24;;;;;;;3.08;2.45;;;;;;;5.60;62.52;100730.14;1737497;82;21039;-42